sensor_id;sensor_type;location;lat;lon;timestamp;pressure;altitude;pressure_sealevel;temperature;humidity
22605;BME280;11469;49.024;8.246;2023-04-03T00:01:00;101321.16;;;4.81;75.92
22605;BME280;11469;49.024;8.246;2023-04-03T00:03:25;101314.47;;;4.82;75.87
22605;BME280;11469;49.024;8.246;2023-04-03T00:05:50;101307.47;;;4.84;75.91
22605;BME280;11469;49.024;8.246;2023-04-03T00:08:16;101314.16;;;4.83;75.71
22605;BME280;11469;49.024;8.246;2023-04-03T00:10:41;101313.34;;;4.83;75.75
22605;BME280;11469;49.024;8.246;2023-04-03T00:13:07;101319.50;;;4.80;76.21
22605;BME280;11469;49.024;8.246;2023-04-03T00:15:34;101311.16;;;4.80;76.49
22605;BME280;11469;49.024;8.246;2023-04-03T00:17:59;101320.91;;;4.77;74.67
22605;BME280;11469;49.024;8.246;2023-04-03T00:20:25;101316.50;;;4.76;75.47
22605;BME280;11469;49.024;8.246;2023-04-03T00:22:51;101322.28;;;4.80;75.99
22605;BME280;11469;49.024;8.246;2023-04-03T00:25:16;101310.34;;;4.79;76.19
22605;BME280;11469;49.024;8.246;2023-04-03T00:27:42;101315.38;;;4.77;75.35
22605;BME280;11469;49.024;8.246;2023-04-03T00:30:09;101313.41;;;4.78;75.36
22605;BME280;11469;49.024;8.246;2023-04-03T00:32:35;101316.63;;;4.85;75.30
22605;BME280;11469;49.024;8.246;2023-04-03T00:35:01;101311.69;;;4.82;76.42
22605;BME280;11469;49.024;8.246;2023-04-03T00:37:26;101315.59;;;4.81;76.58
22605;BME280;11469;49.024;8.246;2023-04-03T00:39:52;101324.22;;;4.79;76.24
22605;BME280;11469;49.024;8.246;2023-04-03T00:42:17;101323.69;;;4.77;76.69
22605;BME280;11469;49.024;8.246;2023-04-03T00:47:13;101325.06;;;4.80;76.59
22605;BME280;11469;49.024;8.246;2023-04-03T00:49:40;101316.19;;;4.78;76.36
22605;BME280;11469;49.024;8.246;2023-04-03T00:52:09;101314.53;;;4.77;76.27
22605;BME280;11469;49.024;8.246;2023-04-03T00:54:38;101316.50;;;4.76;75.88
22605;BME280;11469;49.024;8.246;2023-04-03T00:57:05;101329.97;;;4.69;74.88
22605;BME280;11469;49.024;8.246;2023-04-03T00:59:34;101321.09;;;4.67;75.51
22605;BME280;11469;49.024;8.246;2023-04-03T01:02:03;101317.88;;;4.60;75.33
22605;BME280;11469;49.024;8.246;2023-04-03T01:04:34;101314.41;;;4.68;75.14
22605;BME280;11469;49.024;8.246;2023-04-03T01:07:05;101316.13;;;4.64;75.35
22605;BME280;11469;49.024;8.246;2023-04-03T01:09:32;101315.91;;;4.60;76.18
22605;BME280;11469;49.024;8.246;2023-04-03T01:12:50;101313.22;;;4.55;76.29
22605;BME280;11469;49.024;8.246;2023-04-03T01:15:13;101316.50;;;4.57;76.83
22605;BME280;11469;49.024;8.246;2023-04-03T01:17:51;101322.06;;;4.57;75.47
22605;BME280;11469;49.024;8.246;2023-04-03T01:28:07;101319.50;;;4.42;75.84
22605;BME280;11469;49.024;8.246;2023-04-03T01:30:37;101326.16;;;4.41;75.37
22605;BME280;11469;49.024;8.246;2023-04-03T01:33:04;101324.00;;;4.38;76.09
22605;BME280;11469;49.024;8.246;2023-04-03T01:35:30;101318.72;;;4.37;74.97
22605;BME280;11469;49.024;8.246;2023-04-03T01:37:55;101327.72;;;4.28;74.68
22605;BME280;11469;49.024;8.246;2023-04-03T01:40:21;101333.06;;;4.25;75.99
22605;BME280;11469;49.024;8.246;2023-04-03T01:42:46;101335.06;;;4.19;76.88
22605;BME280;11469;49.024;8.246;2023-04-03T01:45:11;101327.28;;;4.21;76.96
22605;BME280;11469;49.024;8.246;2023-04-03T01:47:37;101324.50;;;4.21;76.86
22605;BME280;11469;49.024;8.246;2023-04-03T01:50:02;101334.53;;;4.17;76.16
22605;BME280;11469;49.024;8.246;2023-04-03T01:52:28;101323.75;;;4.16;76.24
22605;BME280;11469;49.024;8.246;2023-04-03T01:54:54;101331.19;;;4.20;75.82
22605;BME280;11469;49.024;8.246;2023-04-03T01:57:19;101322.63;;;4.17;75.61
22605;BME280;11469;49.024;8.246;2023-04-03T01:59:44;101334.53;;;4.17;76.15
22605;BME280;11469;49.024;8.246;2023-04-03T02:02:10;101330.19;;;4.11;75.89
22605;BME280;11469;49.024;8.246;2023-04-03T02:04:37;101319.91;;;4.12;76.78
22605;BME280;11469;49.024;8.246;2023-04-03T02:07:03;101330.22;;;4.06;76.67
22605;BME280;11469;49.024;8.246;2023-04-03T02:09:28;101328.34;;;4.02;76.58
22605;BME280;11469;49.024;8.246;2023-04-03T02:11:53;101328.34;;;4.02;76.42
22605;BME280;11469;49.024;8.246;2023-04-03T02:14:19;101327.53;;;4.01;77.39
22605;BME280;11469;49.024;8.246;2023-04-03T02:16:47;101327.47;;;4.06;76.49
22605;BME280;11469;49.024;8.246;2023-04-03T02:19:12;101336.38;;;4.03;76.29
22605;BME280;11469;49.024;8.246;2023-04-03T02:21:38;101317.59;;;3.95;76.82
22605;BME280;11469;49.024;8.246;2023-04-03T02:24:03;101324.81;;;3.96;77.01
22605;BME280;11469;49.024;8.246;2023-04-03T02:26:29;101330.13;;;3.92;76.45
22605;BME280;11469;49.024;8.246;2023-04-03T02:28:54;101319.31;;;3.91;76.32
22605;BME280;11469;49.024;8.246;2023-04-03T02:31:19;101312.69;;;3.87;76.53
22605;BME280;11469;49.024;8.246;2023-04-03T02:33:45;101326.91;;;3.80;76.66
22605;BME280;11469;49.024;8.246;2023-04-03T02:36:11;101326.38;;;3.78;76.44
22605;BME280;11469;49.024;8.246;2023-04-03T02:38:36;101310.66;;;3.74;77.47
22605;BME280;11469;49.024;8.246;2023-04-03T02:41:03;101315.09;;;3.75;77.27
22605;BME280;11469;49.024;8.246;2023-04-03T02:43:29;101321.22;;;3.72;76.98
22605;BME280;11469;49.024;8.246;2023-04-03T02:45:54;101316.50;;;3.72;77.69
22605;BME280;11469;49.024;8.246;2023-04-03T02:48:20;101323.44;;;3.70;77.42
22605;BME280;11469;49.024;8.246;2023-04-03T02:50:46;101326.81;;;3.66;76.89
22605;BME280;11469;49.024;8.246;2023-04-03T02:53:11;101323.50;;;3.64;76.86
22605;BME280;11469;49.024;8.246;2023-04-03T02:55:36;101321.31;;;3.61;77.27
22605;BME280;11469;49.024;8.246;2023-04-03T02:58:02;101325.44;;;3.64;77.19
22605;BME280;11469;49.024;8.246;2023-04-03T03:00:28;101314.34;;;3.64;77.78
22605;BME280;11469;49.024;8.246;2023-04-03T03:02:54;101317.44;;;3.62;78.21
22605;BME280;11469;49.024;8.246;2023-04-03T03:05:19;101313.53;;;3.63;77.80
22605;BME280;11469;49.024;8.246;2023-04-03T03:07:45;101323.31;;;3.56;77.55
22605;BME280;11469;49.024;8.246;2023-04-03T03:10:10;101320.25;;;3.57;78.02
22605;BME280;11469;49.024;8.246;2023-04-03T03:12:36;101323.66;;;3.49;78.56
22605;BME280;11469;49.024;8.246;2023-04-03T03:15:01;101317.00;;;3.50;78.45
22605;BME280;11469;49.024;8.246;2023-04-03T03:17:26;101326.09;;;3.56;78.60
22605;BME280;11469;49.024;8.246;2023-04-03T03:19:52;101322.72;;;3.59;78.05
22605;BME280;11469;49.024;8.246;2023-04-03T03:22:17;101324.44;;;3.55;78.71
22605;BME280;11469;49.024;8.246;2023-04-03T03:24:42;101322.53;;;3.50;77.98
22605;BME280;11469;49.024;8.246;2023-04-03T03:27:08;101325.88;;;3.47;77.61
22605;BME280;11469;49.024;8.246;2023-04-03T03:29:33;101334.81;;;3.39;77.64
22605;BME280;11469;49.024;8.246;2023-04-03T03:31:58;101330.06;;;3.45;77.53
22605;BME280;11469;49.024;8.246;2023-04-03T03:34:25;101324.72;;;3.53;78.18
22605;BME280;11469;49.024;8.246;2023-04-03T03:36:50;101322.00;;;3.48;77.99
22605;BME280;11469;49.024;8.246;2023-04-03T03:39:16;101327.78;;;3.52;78.19
22605;BME280;11469;49.024;8.246;2023-04-03T03:41:41;101320.84;;;3.54;78.68
22605;BME280;11469;49.024;8.246;2023-04-03T03:44:07;101321.94;;;3.53;78.36
22605;BME280;11469;49.024;8.246;2023-04-03T03:46:32;101309.00;;;3.44;78.60
22605;BME280;11469;49.024;8.246;2023-04-03T03:48:57;101316.78;;;3.42;78.94
22605;BME280;11469;49.024;8.246;2023-04-03T03:51:23;101314.31;;;3.40;78.50
22605;BME280;11469;49.024;8.246;2023-04-03T03:53:48;101319.84;;;3.40;78.72
22605;BME280;11469;49.024;8.246;2023-04-03T03:56:13;101315.44;;;3.39;79.06
22605;BME280;11469;49.024;8.246;2023-04-03T03:58:39;101317.19;;;3.30;79.30
22605;BME280;11469;49.024;8.246;2023-04-03T04:01:06;101319.38;;;3.33;79.31
22605;BME280;11469;49.024;8.246;2023-04-03T04:03:32;101323.50;;;3.36;79.45
22605;BME280;11469;49.024;8.246;2023-04-03T04:05:57;101324.03;;;3.38;79.62
22605;BME280;11469;49.024;8.246;2023-04-03T04:08:23;101324.84;;;3.38;79.56
22605;BME280;11469;49.024;8.246;2023-04-03T04:10:48;101321.78;;;3.40;79.48
22605;BME280;11469;49.024;8.246;2023-04-03T04:13:14;101327.59;;;3.43;79.46
22605;BME280;11469;49.024;8.246;2023-04-03T04:15:39;101330.09;;;3.40;80.00
22605;BME280;11469;49.024;8.246;2023-04-03T04:18:05;101325.94;;;3.42;79.67
22605;BME280;11469;49.024;8.246;2023-04-03T04:20:31;101341.72;;;3.42;79.10
22605;BME280;11469;49.024;8.246;2023-04-03T04:22:56;101329.00;;;3.41;79.95
22605;BME280;11469;49.024;8.246;2023-04-03T04:25:22;101335.38;;;3.41;79.98
22605;BME280;11469;49.024;8.246;2023-04-03T04:27:47;101330.16;;;3.34;80.22
22605;BME280;11469;49.024;8.246;2023-04-03T04:30:13;101329.56;;;3.38;80.91
22605;BME280;11469;49.024;8.246;2023-04-03T04:32:38;101331.75;;;3.41;79.86
22605;BME280;11469;49.024;8.246;2023-04-03T04:35:04;101327.34;;;3.40;80.38
22605;BME280;11469;49.024;8.246;2023-04-03T04:37:30;101336.78;;;3.39;80.23
22605;BME280;11469;49.024;8.246;2023-04-03T04:39:55;101326.75;;;3.43;80.13
22605;BME280;11469;49.024;8.246;2023-04-03T04:42:21;101326.50;;;3.39;80.53
22605;BME280;11469;49.024;8.246;2023-04-03T04:44:46;101336.19;;;3.42;79.76
22605;BME280;11469;49.024;8.246;2023-04-03T04:47:12;101335.59;;;3.45;79.94
22605;BME280;11469;49.024;8.246;2023-04-03T04:49:37;101333.41;;;3.42;79.99
22605;BME280;11469;49.024;8.246;2023-04-03T04:52:02;101337.59;;;3.39;80.38
22605;BME280;11469;49.024;8.246;2023-04-03T04:54:28;101339.25;;;3.40;80.62
22605;BME280;11469;49.024;8.246;2023-04-03T04:56:53;101333.97;;;3.44;81.11
22605;BME280;11469;49.024;8.246;2023-04-03T04:59:19;101341.09;;;3.50;81.20
22605;BME280;11469;49.024;8.246;2023-04-03T05:01:44;101339.13;;;3.55;80.73
22605;BME280;11469;49.024;8.246;2023-04-03T05:04:10;101338.59;;;3.53;81.36
22605;BME280;11469;49.024;8.246;2023-04-03T05:06:35;101341.00;;;3.60;80.77
22605;BME280;11469;49.024;8.246;2023-04-03T05:09:01;101353.50;;;3.57;80.62
22605;BME280;11469;49.024;8.246;2023-04-03T05:11:26;101351.63;;;3.53;78.74
22605;BME280;11469;49.024;8.246;2023-04-03T05:13:52;101353.88;;;3.46;77.91
22605;BME280;11469;49.024;8.246;2023-04-03T05:16:17;101354.75;;;3.41;78.34
22605;BME280;11469;49.024;8.246;2023-04-03T05:18:43;101361.75;;;3.33;78.05
22605;BME280;11469;49.024;8.246;2023-04-03T05:21:08;101363.16;;;3.31;78.01
22605;BME280;11469;49.024;8.246;2023-04-03T05:23:33;101364.31;;;3.30;78.07
22605;BME280;11469;49.024;8.246;2023-04-03T05:25:59;101352.44;;;3.24;78.18
22605;BME280;11469;49.024;8.246;2023-04-03T05:28:24;101374.59;;;3.24;78.54
22605;BME280;11469;49.024;8.246;2023-04-03T05:30:54;101370.75;;;3.20;78.73
22605;BME280;11469;49.024;8.246;2023-04-03T05:33:20;101371.88;;;3.19;78.50
22605;BME280;11469;49.024;8.246;2023-04-03T05:35:46;101376.94;;;3.07;78.20
22605;BME280;11469;49.024;8.246;2023-04-03T05:38:11;101384.13;;;3.08;78.73
22605;BME280;11469;49.024;8.246;2023-04-03T05:40:37;101390.75;;;3.12;78.73
22605;BME280;11469;49.024;8.246;2023-04-03T05:43:02;101385.28;;;3.02;78.39
22605;BME280;11469;49.024;8.246;2023-04-03T05:45:28;101378.94;;;2.96;78.74
22605;BME280;11469;49.024;8.246;2023-04-03T05:47:53;101386.16;;;2.97;78.20
22605;BME280;11469;49.024;8.246;2023-04-03T05:50:19;101388.63;;;2.99;77.30
22605;BME280;11469;49.024;8.246;2023-04-03T05:52:46;101381.47;;;2.93;77.68
22605;BME280;11469;49.024;8.246;2023-04-03T05:55:13;101388.09;;;2.97;78.33
22605;BME280;11469;49.024;8.246;2023-04-03T05:57:39;101392.22;;;2.99;77.43
22605;BME280;11469;49.024;8.246;2023-04-03T06:00:06;101390.84;;;2.97;77.45
22605;BME280;11469;49.024;8.246;2023-04-03T06:02:32;101388.63;;;2.99;77.51
22605;BME280;11469;49.024;8.246;2023-04-03T06:04:57;101396.94;;;2.99;77.66
22605;BME280;11469;49.024;8.246;2023-04-03T06:07:24;101405.72;;;3.11;77.61
22605;BME280;11469;49.024;8.246;2023-04-03T06:09:54;101397.16;;;3.08;77.65
22605;BME280;11469;49.024;8.246;2023-04-03T06:12:21;101398.53;;;3.10;77.24
22605;BME280;11469;49.024;8.246;2023-04-03T06:14:46;101400.72;;;3.13;77.62
22605;BME280;11469;49.024;8.246;2023-04-03T06:17:12;101395.69;;;3.20;77.20
22605;BME280;11469;49.024;8.246;2023-04-03T06:19:38;101392.88;;;3.25;77.64
22605;BME280;11469;49.024;8.246;2023-04-03T06:22:05;101402.28;;;3.29;77.92
22605;BME280;11469;49.024;8.246;2023-04-03T06:24:31;101401.66;;;3.32;77.91
22605;BME280;11469;49.024;8.246;2023-04-03T06:26:56;101405.91;;;3.25;78.15
22605;BME280;11469;49.024;8.246;2023-04-03T06:29:22;101403.00;;;3.40;77.06
22605;BME280;11469;49.024;8.246;2023-04-03T06:31:48;101393.53;;;3.46;76.64
22605;BME280;11469;49.024;8.246;2023-04-03T06:34:15;101407.06;;;3.53;76.42
22605;BME280;11469;49.024;8.246;2023-04-03T06:36:42;101400.31;;;3.64;76.81
22605;BME280;11469;49.024;8.246;2023-04-03T06:39:12;101412.75;;;3.66;75.31
22605;BME280;11469;49.024;8.246;2023-04-03T06:41:38;101411.72;;;4.15;73.54
22605;BME280;11469;49.024;8.246;2023-04-03T06:44:03;101413.47;;;4.30;72.60
22605;BME280;11469;49.024;8.246;2023-04-03T06:46:29;101407.56;;;4.13;73.85
22605;BME280;11469;49.024;8.246;2023-04-03T06:48:55;101421.84;;;4.01;73.14
22605;BME280;11469;49.024;8.246;2023-04-03T06:51:28;101413.13;;;3.84;74.30
22605;BME280;11469;49.024;8.246;2023-04-03T06:53:55;101411.56;;;3.78;74.54
22605;BME280;11469;49.024;8.246;2023-04-03T06:56:21;101409.38;;;3.75;74.00
22605;BME280;11469;49.024;8.246;2023-04-03T06:58:47;101415.94;;;3.79;74.70
22605;BME280;11469;49.024;8.246;2023-04-03T07:01:14;101417.69;;;3.75;75.70
22605;BME280;11469;49.024;8.246;2023-04-03T07:03:39;101423.88;;;3.90;75.16
22605;BME280;11469;49.024;8.246;2023-04-03T07:06:06;101416.88;;;3.98;75.51
22605;BME280;11469;49.024;8.246;2023-04-03T07:08:32;101415.16;;;4.26;75.40
22605;BME280;11469;49.024;8.246;2023-04-03T07:10:58;101428.09;;;4.36;75.11
22605;BME280;11469;49.024;8.246;2023-04-03T07:13:24;101408.34;;;4.18;75.57
22605;BME280;11469;49.024;8.246;2023-04-03T07:15:52;101420.91;;;4.34;75.84
22605;BME280;11469;49.024;8.246;2023-04-03T07:18:18;101429.75;;;4.37;75.38
22605;BME280;11469;49.024;8.246;2023-04-03T07:20:43;101423.75;;;4.53;76.02
22605;BME280;11469;49.024;8.246;2023-04-03T07:23:09;101425.72;;;4.72;76.08
22605;BME280;11469;49.024;8.246;2023-04-03T07:25:34;101425.16;;;4.51;76.21
22605;BME280;11469;49.024;8.246;2023-04-03T07:28:00;101427.28;;;4.59;77.38
22605;BME280;11469;49.024;8.246;2023-04-03T07:30:25;101432.63;;;4.74;76.41
22605;BME280;11469;49.024;8.246;2023-04-03T07:32:51;101433.44;;;4.75;76.08
22605;BME280;11469;49.024;8.246;2023-04-03T07:35:17;101434.06;;;4.72;76.72
22605;BME280;11469;49.024;8.246;2023-04-03T07:37:42;101440.81;;;4.65;76.24
22605;BME280;11469;49.024;8.246;2023-04-03T07:40:08;101436.38;;;4.64;76.51
22605;BME280;11469;49.024;8.246;2023-04-03T07:42:33;101443.13;;;4.58;76.21
22605;BME280;11469;49.024;8.246;2023-04-03T07:45:00;101450.22;;;4.88;77.54
22605;BME280;11469;49.024;8.246;2023-04-03T07:47:26;101438.13;;;4.98;74.94
22605;BME280;11469;49.024;8.246;2023-04-03T07:49:51;101433.03;;;5.05;75.41
22605;BME280;11469;49.024;8.246;2023-04-03T07:52:17;101448.88;;;5.05;74.62
22605;BME280;11469;49.024;8.246;2023-04-03T07:54:42;101449.13;;;5.08;74.74
22605;BME280;11469;49.024;8.246;2023-04-03T07:57:08;101446.25;;;5.13;75.48
22605;BME280;11469;49.024;8.246;2023-04-03T07:59:34;101450.81;;;5.23;75.90
22605;BME280;11469;49.024;8.246;2023-04-03T08:01:59;101457.81;;;5.58;74.94
22605;BME280;11469;49.024;8.246;2023-04-03T08:04:25;101454.34;;;5.47;74.75
22605;BME280;11469;49.024;8.246;2023-04-03T08:06:51;101459.69;;;5.62;74.18
22605;BME280;11469;49.024;8.246;2023-04-03T08:09:17;101457.00;;;5.71;73.73
22605;BME280;11469;49.024;8.246;2023-04-03T08:11:44;101470.09;;;5.71;72.98
22605;BME280;11469;49.024;8.246;2023-04-03T08:14:10;101453.00;;;5.77;74.46
22605;BME280;11469;49.024;8.246;2023-04-03T08:16:40;101453.38;;;5.38;72.12
22605;BME280;11469;49.024;8.246;2023-04-03T08:19:05;101463.00;;;5.78;73.25
22605;BME280;11469;49.024;8.246;2023-04-03T08:21:32;101459.19;;;5.74;69.83
22605;BME280;11469;49.024;8.246;2023-04-03T08:23:58;101451.25;;;6.00;69.45
22605;BME280;11469;49.024;8.246;2023-04-03T08:26:23;101457.88;;;6.04;69.22
22605;BME280;11469;49.024;8.246;2023-04-03T08:28:49;101447.88;;;5.84;69.76
22605;BME280;11469;49.024;8.246;2023-04-03T08:31:16;101447.47;;;6.10;70.34
22605;BME280;11469;49.024;8.246;2023-04-03T08:33:44;101449.81;;;6.03;69.47
22605;BME280;11469;49.024;8.246;2023-04-03T08:36:27;101452.03;;;6.33;69.90
22605;BME280;11469;49.024;8.246;2023-04-03T08:38:54;101460.47;;;6.28;70.93
22605;BME280;11469;49.024;8.246;2023-04-03T08:41:41;101457.78;;;6.09;69.35
22605;BME280;11469;49.024;8.246;2023-04-03T08:49:51;101452.97;;;6.42;67.58
22605;BME280;11469;49.024;8.246;2023-04-03T08:52:19;101442.13;;;6.41;66.95
22605;BME280;11469;49.024;8.246;2023-04-03T08:54:54;101446.34;;;6.38;67.95
22605;BME280;11469;49.024;8.246;2023-04-03T08:57:28;101458.75;;;6.46;68.20
22605;BME280;11469;49.024;8.246;2023-04-03T08:59:54;101447.59;;;6.32;68.92
22605;BME280;11469;49.024;8.246;2023-04-03T09:02:33;101458.00;;;6.40;66.64
22605;BME280;11469;49.024;8.246;2023-04-03T09:05:01;101447.59;;;6.32;65.13
22605;BME280;11469;49.024;8.246;2023-04-03T09:07:36;101450.81;;;6.53;65.43
22605;BME280;11469;49.024;8.246;2023-04-03T09:10:05;101453.59;;;6.39;63.67
22605;BME280;11469;49.024;8.246;2023-04-03T09:12:38;101443.88;;;6.37;65.49
22605;BME280;11469;49.024;8.246;2023-04-03T09:15:20;101454.91;;;6.42;65.47
22605;BME280;11469;49.024;8.246;2023-04-03T09:22:45;101455.22;;;6.40;64.73
22605;BME280;11469;49.024;8.246;2023-04-03T09:25:32;101451.63;;;6.53;66.06
22605;BME280;11469;49.024;8.246;2023-04-03T09:28:00;101439.66;;;6.53;65.40
22605;BME280;11469;49.024;8.246;2023-04-03T09:30:27;101452.13;;;6.42;64.35
22605;BME280;11469;49.024;8.246;2023-04-03T09:32:55;101441.41;;;6.49;63.44
22605;BME280;11469;49.024;8.246;2023-04-03T09:35:32;101453.28;;;6.54;63.63
22605;BME280;11469;49.024;8.246;2023-04-03T09:40:36;101442.94;;;6.82;61.15
22605;BME280;11469;49.024;8.246;2023-04-03T09:45:41;101446.66;;;6.78;61.99
22605;BME280;11469;49.024;8.246;2023-04-03T09:48:08;101443.97;;;6.73;62.60
22605;BME280;11469;49.024;8.246;2023-04-03T09:50:35;101435.91;;;6.71;62.35
22605;BME280;11469;49.024;8.246;2023-04-03T09:53:06;101443.97;;;6.86;61.53
22605;BME280;11469;49.024;8.246;2023-04-03T09:55:32;101450.38;;;6.87;61.14
22605;BME280;11469;49.024;8.246;2023-04-03T09:58:33;101445.19;;;7.08;60.77
22605;BME280;11469;49.024;8.246;2023-04-03T10:01:02;101439.13;;;6.78;61.71
22605;BME280;11469;49.024;8.246;2023-04-03T10:03:34;101442.19;;;6.90;62.02
22605;BME280;11469;49.024;8.246;2023-04-03T10:06:02;101438.88;;;7.02;60.14
22605;BME280;11469;49.024;8.246;2023-04-03T10:08:31;101447.66;;;6.95;60.39
22605;BME280;11469;49.024;8.246;2023-04-03T10:13:52;101442.59;;;6.97;61.41
22605;BME280;11469;49.024;8.246;2023-04-03T10:16:22;101444.16;;;7.04;59.21
22605;BME280;11469;49.024;8.246;2023-04-03T10:24:48;101441.47;;;6.98;60.28
22605;BME280;11469;49.024;8.246;2023-04-03T10:27:26;101438.78;;;6.93;59.42
22605;BME280;11469;49.024;8.246;2023-04-03T10:30:04;101445.81;;;7.05;58.55
22605;BME280;11469;49.024;8.246;2023-04-03T10:38:42;101424.31;;;7.05;58.15
22605;BME280;11469;49.024;8.246;2023-04-03T10:46:38;101429.59;;;7.29;53.26
22605;BME280;11469;49.024;8.246;2023-04-03T10:52:13;101417.22;;;7.21;53.18
22605;BME280;11469;49.024;8.246;2023-04-03T10:54:56;101425.16;;;7.28;53.95
22605;BME280;11469;49.024;8.246;2023-04-03T10:57:27;101422.78;;;7.35;52.79
22605;BME280;11469;49.024;8.246;2023-04-03T11:00:09;101426.38;;;7.58;53.88
22605;BME280;11469;49.024;8.246;2023-04-03T11:02:48;101437.47;;;7.72;53.05
22605;BME280;11469;49.024;8.246;2023-04-03T11:05:21;101427.53;;;7.79;52.33
22605;BME280;11469;49.024;8.246;2023-04-03T11:07:52;101423.22;;;7.73;51.62
22605;BME280;11469;49.024;8.246;2023-04-03T11:10:34;101416.88;;;7.37;52.07
22605;BME280;11469;49.024;8.246;2023-04-03T11:15:44;101423.03;;;7.47;54.98
22605;BME280;11469;49.024;8.246;2023-04-03T11:18:20;101419.41;;;7.69;54.23
22605;BME280;11469;49.024;8.246;2023-04-03T11:21:35;101421.69;;;7.89;53.21
22605;BME280;11469;49.024;8.246;2023-04-03T11:24:05;101407.72;;;8.20;51.91
22605;BME280;11469;49.024;8.246;2023-04-03T11:26:40;101411.59;;;8.11;50.42
22605;BME280;11469;49.024;8.246;2023-04-03T11:29:12;101408.03;;;7.88;51.08
22605;BME280;11469;49.024;8.246;2023-04-03T11:34:39;101403.84;;;7.99;50.72
22605;BME280;11469;49.024;8.246;2023-04-03T11:37:29;101411.06;;;8.00;49.48
22605;BME280;11469;49.024;8.246;2023-04-03T11:40:00;101400.53;;;7.97;50.66
22605;BME280;11469;49.024;8.246;2023-04-03T11:43:02;101408.06;;;7.65;50.46
22605;BME280;11469;49.024;8.246;2023-04-03T11:53:03;101406.84;;;7.80;49.95
22605;BME280;11469;49.024;8.246;2023-04-03T11:58:18;101403.22;;;7.80;50.99
22605;BME280;11469;49.024;8.246;2023-04-03T12:13:43;101382.41;;;7.86;48.61
22605;BME280;11469;49.024;8.246;2023-04-03T12:42:45;101370.28;;;7.90;49.91
22605;BME280;11469;49.024;8.246;2023-04-03T12:45:23;101363.97;;;7.76;49.91
22605;BME280;11469;49.024;8.246;2023-04-03T12:47:51;101380.84;;;7.71;50.65
22605;BME280;11469;49.024;8.246;2023-04-03T12:50:21;101364.09;;;7.71;50.96
22605;BME280;11469;49.024;8.246;2023-04-03T12:53:12;101363.78;;;7.73;50.05
22605;BME280;11469;49.024;8.246;2023-04-03T12:55:39;101361.69;;;7.78;49.90
22605;BME280;11469;49.024;8.246;2023-04-03T13:00:41;101366.91;;;8.42;50.17
22605;BME280;11469;49.024;8.246;2023-04-03T13:03:23;101357.94;;;8.22;50.44
22605;BME280;11469;49.024;8.246;2023-04-03T13:05:49;101361.47;;;8.37;50.76
22605;BME280;11469;49.024;8.246;2023-04-03T13:08:15;101369.03;;;8.05;49.90
22605;BME280;11469;49.024;8.246;2023-04-03T13:11:05;101366.09;;;8.10;49.62
22605;BME280;11469;49.024;8.246;2023-04-03T13:13:34;101365.91;;;7.98;49.19
22605;BME280;11469;49.024;8.246;2023-04-03T13:15:59;101368.16;;;7.87;47.91
22605;BME280;11469;49.024;8.246;2023-04-03T13:18:31;101365.75;;;8.03;49.09
22605;BME280;11469;49.024;8.246;2023-04-03T13:21:10;101357.88;;;8.36;49.32
22605;BME280;11469;49.024;8.246;2023-04-03T13:23:40;101359.03;;;8.13;50.05
22605;BME280;11469;49.024;8.246;2023-04-03T13:26:10;101369.56;;;8.16;50.28
22605;BME280;11469;49.024;8.246;2023-04-03T13:28:36;101370.09;;;7.87;50.53
22605;BME280;11469;49.024;8.246;2023-04-03T13:31:07;101362.91;;;7.63;51.13
22605;BME280;11469;49.024;8.246;2023-04-03T13:33:36;101363.84;;;7.81;51.21
22605;BME280;11469;49.024;8.246;2023-04-03T13:36:06;101362.69;;;7.82;50.38
22605;BME280;11469;49.024;8.246;2023-04-03T13:38:33;101361.44;;;7.66;52.07
22605;BME280;11469;49.024;8.246;2023-04-03T13:41:23;101369.38;;;7.73;51.49
22605;BME280;11469;49.024;8.246;2023-04-03T13:43:48;101356.50;;;7.63;50.42
22605;BME280;11469;49.024;8.246;2023-04-03T13:48:45;101355.16;;;7.83;50.99
22605;BME280;11469;49.024;8.246;2023-04-03T13:53:46;101358.84;;;8.01;48.91
22605;BME280;11469;49.024;8.246;2023-04-03T13:56:19;101351.31;;;8.01;49.46
22605;BME280;11469;49.024;8.246;2023-04-03T14:01:50;101343.59;;;8.46;47.04
22605;BME280;11469;49.024;8.246;2023-04-03T14:04:28;101350.88;;;8.82;47.39
22605;BME280;11469;49.024;8.246;2023-04-03T14:06:55;101346.56;;;8.50;44.96
22605;BME280;11469;49.024;8.246;2023-04-03T14:09:23;101342.63;;;8.11;46.92
22605;BME280;11469;49.024;8.246;2023-04-03T14:11:51;101343.91;;;8.05;46.65
22605;BME280;11469;49.024;8.246;2023-04-03T14:14:23;101352.78;;;8.07;47.76
22605;BME280;11469;49.024;8.246;2023-04-03T14:16:54;101335.19;;;7.98;48.63
22605;BME280;11469;49.024;8.246;2023-04-03T14:19:25;101346.50;;;7.93;50.21
22605;BME280;11469;49.024;8.246;2023-04-03T14:21:52;101339.91;;;7.89;49.80
22605;BME280;11469;49.024;8.246;2023-04-03T14:24:19;101336.19;;;8.02;48.71
22605;BME280;11469;49.024;8.246;2023-04-03T14:26:45;101346.63;;;7.88;49.29
22605;BME280;11469;49.024;8.246;2023-04-03T14:29:12;101342.84;;;7.84;49.92
22605;BME280;11469;49.024;8.246;2023-04-03T14:31:38;101334.59;;;7.79;49.82
22605;BME280;11469;49.024;8.246;2023-04-03T14:34:03;101332.63;;;7.79;50.55
22605;BME280;11469;49.024;8.246;2023-04-03T14:36:29;101331.50;;;7.80;50.73
22605;BME280;11469;49.024;8.246;2023-04-03T14:38:56;101329.34;;;8.17;50.63
22605;BME280;11469;49.024;8.246;2023-04-03T14:41:23;101332.72;;;8.05;48.96
22605;BME280;11469;49.024;8.246;2023-04-03T14:43:50;101329.25;;;7.91;49.62
22605;BME280;11469;49.024;8.246;2023-04-03T14:46:40;101322.19;;;7.93;50.56
22605;BME280;11469;49.024;8.246;2023-04-03T14:49:28;101318.03;;;8.22;50.32
22605;BME280;11469;49.024;8.246;2023-04-03T14:51:56;101320.34;;;8.28;49.41
22605;BME280;11469;49.024;8.246;2023-04-03T14:54:22;101315.91;;;8.27;51.18
22605;BME280;11469;49.024;8.246;2023-04-03T14:56:53;101325.00;;;8.33;47.98
22605;BME280;11469;49.024;8.246;2023-04-03T14:59:19;101319.59;;;7.97;48.23
22605;BME280;11469;49.024;8.246;2023-04-03T15:01:47;101317.81;;;8.01;48.15